Knossos Palace — SYQO — position and weather

sailwx.info

Track history (hours):
 
Tides and Currents Weather Stations Pressure Air Temp Water Temp Dewpoint Dewpoint Depression Visibility Wind Speed Wind Dir Waves Ship Positions

Knossos Palace

Last reported at 2016-May-26 04:33 UTC. Time now 2016-May-26 04:43 UTC.
Position N 37°57' E 023°38'.

Length 214 m; beam 26.4 m; draft 7.3 m.

Type: Ship. MMSI: 237641000.

Date/timePositionNaut miles runAvg speedWind from/ knotsBaromVisibWave heightAir tempDewpointWater temp
2016-May-26 04:33N 37°57' E 023°38'0 0.1
2016-May-26 03:34N 37°57' E 023°38'1514.7
2016-May-26 02:33N 37°43' E 023°44'2020.3
2016-May-26 01:33N 37°24' E 023°53'8 0.3
2016-May-24 20:32N 37°16' E 023°55'1919.5
2016-May-24 19:33N 37°33' E 023°45'2019.8
2016-May-24 18:33N 37°52' E 023°37'5 4.6
2016-May-24 17:33N 37°57' E 023°38'0 0.0
2016-May-24 16:31N 37°57' E 023°38'0 0.0
2016-May-24 15:31N 37°57' E 023°38'0 0.0
2016-May-24 14:31N 37°57' E 023°38'0 0.0
2016-May-24 13:31N 37°57' E 023°38'0 0.0
2016-May-24 12:31N 37°57' E 023°38'0 0.0
2016-May-24 11:31N 37°57' E 023°38'0 0.0
2016-May-24 10:31N 37°57' E 023°38'0 0.0
2016-May-24 09:31N 37°57' E 023°38'0 0.0
2016-May-24 08:31N 37°57' E 023°38'0 0.0
2016-May-24 07:31N 37°57' E 023°38'0 0.0
2016-May-24 06:31N 37°57' E 023°38'0 0.0
2016-May-24 05:31N 37°57' E 023°38'0 0.0
2016-May-24 04:31N 37°57' E 023°38'0 0.0
2016-May-24 03:34N 37°57' E 023°38'1413.5
2016-May-24 02:33N 37°44' E 023°43'1919.4
2016-May-24 01:33N 37°26' E 023°52'2019.8
2016-May-24 00:33N 37°07' E 024°02'2020.5
2016-May-23 23:33N 36°48' E 024°10'35 1.3
2016-May-22 20:09N 37°20' E 023°53'1220.1
2016-May-22 19:34N 37°31' E 023°47'2020.1
2016-May-22 18:34N 37°50' E 023°38'7 7.0
2016-May-22 17:33N 37°57' E 023°38'0 0.0
2016-May-22 16:34N 37°57' E 023°38'0 0.0
2016-May-22 15:34N 37°57' E 023°38'0 0.0
2016-May-22 14:34N 37°57' E 023°38'0 0.0
2016-May-22 13:34N 37°57' E 023°38'0 0.0
2016-May-22 12:34N 37°57' E 023°38'0 0.0
2016-May-22 11:34N 37°57' E 023°38'0 0.0
2016-May-22 10:34N 37°57' E 023°38'0 0.0
2016-May-22 09:34N 37°57' E 023°38'0 0.0
2016-May-22 08:34N 37°57' E 023°38'0 0.0
2016-May-22 07:34N 37°57' E 023°38'0 0.0
2016-May-22 06:34N 37°57' E 023°38'0 0.0
2016-May-22 05:34N 37°57' E 023°38'0 0.0
2016-May-22 04:34N 37°57' E 023°38'1 0.9
2016-May-22 03:34N 37°56' E 023°37'1918.7
2016-May-22 02:34N 37°39' E 023°46'2918.6
2016-May-22 01:00N 37°12' E 024°00'12 0.4 340 / 301006.910.8 20.015.322.0
2016-May-20 20:15N 37°22' E 023°52'1319.1
2016-May-20 19:33N 37°34' E 023°45'1918.9
2016-May-20 18:33N 37°52' E 023°37'5 4.9
2016-May-20 17:33N 37°57' E 023°38'0 0.0
2016-May-20 16:32N 37°57' E 023°38'0 0.0
2016-May-20 15:32N 37°57' E 023°38'0 0.0
2016-May-20 14:32N 37°57' E 023°38'0 0.0
2016-May-20 13:32N 37°57' E 023°38'0 0.0
2016-May-20 12:32N 37°57' E 023°38'0 0.0
2016-May-20 11:32N 37°57' E 023°38'0 0.0
2016-May-20 10:32N 37°57' E 023°38'0 0.0
2016-May-20 09:32N 37°57' E 023°38'0 0.0
2016-May-20 08:32N 37°57' E 023°38'0 0.0
2016-May-20 07:32N 37°57' E 023°38'0 0.0
2016-May-20 06:32N 37°57' E 023°38'0 0.0
2016-May-20 05:32N 37°57' E 023°38'0 0.0
2016-May-20 04:32N 37°57' E 023°38'1 1.1
2016-May-20 03:33N 37°56' E 023°37'1514.9
2016-May-20 02:33N 37°43' E 023°45'2020.3
2016-May-20 01:33N 37°23' E 023°53'2020.3
2016-May-20 00:33N 37°04' E 024°02'19 0.7
2016-May-18 20:22N 37°22' E 023°52'1619.1
2016-May-18 19:33N 37°36' E 023°45'1818.4
2016-May-18 18:33N 37°54' E 023°37'3 3.2
2016-May-18 17:33N 37°57' E 023°38'0 0.0
2016-May-18 16:32N 37°57' E 023°38'0 0.0
2016-May-18 15:32N 37°57' E 023°38'0 0.0
2016-May-18 14:32N 37°57' E 023°38'0 0.0
2016-May-18 13:32N 37°57' E 023°38'0 0.0
2016-May-18 12:33N 37°57' E 023°38'0 0.0
2016-May-18 09:10N 37°57' E 023°38'0 0.0
2016-May-18 08:34N 37°57' E 023°38'0 0.0
2016-May-18 07:32N 37°57' E 023°38'0 0.0
2016-May-18 06:32N 37°57' E 023°38'0 0.0
2016-May-18 05:33N 37°57' E 023°38'0 0.0
2016-May-18 04:33N 37°57' E 023°38'1 1.5
2016-May-18 03:34N 37°56' E 023°37'1818.5
2016-May-18 02:34N 37°39' E 023°46'2020.2
2016-May-18 01:33N 37°20' E 023°55'4 0.1
2016-May-16 20:33N 37°16' E 023°54'2019.9
2016-May-16 19:33N 37°34' E 023°45'2019.6
2016-May-16 18:34N 37°53' E 023°37'4 3.7
2016-May-16 17:32N 37°57' E 023°38'0 0.0
2016-May-16 16:32N 37°57' E 023°38'0 0.0
2016-May-16 15:32N 37°57' E 023°38'0 0.0
2016-May-16 14:32N 37°57' E 023°38'0 0.0
2016-May-16 13:32N 37°57' E 023°38'0 0.0
2016-May-16 12:32N 37°57' E 023°38'0 0.0
2016-May-16 11:32N 37°57' E 023°38'0 0.0
2016-May-16 10:33N 37°57' E 023°38'0 0.0
2016-May-16 07:33N 37°57' E 023°38'0 0.0
2016-May-16 05:33N 37°57' E 023°38'0 0.0
2016-May-16 04:33N 37°57' E 023°38'  
Track history (hours):
 
Tides and Currents Weather Stations Pressure Air Temp Water Temp Dewpoint Dewpoint Depression Visibility Wind Speed Wind Dir Waves Ship Positions

Knossos Palace

Last reported at 2016-May-26 04:33 UTC. Time now 2016-May-26 04:43 UTC.
Position N 37°57' E 023°38'.

Length 214 m; beam 26.4 m; draft 7.3 m.

Type: Ship. MMSI: 237641000.

Date/timePositionNaut miles runAvg speedWind from/ knotsBaromVisibWave heightAir tempDewpointWater temp
2016-May-26 04:33N 37°57' E 023°38'0 0.1
2016-May-26 03:34N 37°57' E 023°38'1514.7
2016-May-26 02:33N 37°43' E 023°44'2020.3
2016-May-26 01:33N 37°24' E 023°53'8 0.3
2016-May-24 20:32N 37°16' E 023°55'1919.5
2016-May-24 19:33N 37°33' E 023°45'2019.8
2016-May-24 18:33N 37°52' E 023°37'5 4.6
2016-May-24 17:33N 37°57' E 023°38'0 0.0
2016-May-24 16:31N 37°57' E 023°38'0 0.0
2016-May-24 15:31N 37°57' E 023°38'0 0.0
2016-May-24 14:31N 37°57' E 023°38'0 0.0
2016-May-24 13:31N 37°57' E 023°38'0 0.0
2016-May-24 12:31N 37°57' E 023°38'0 0.0
2016-May-24 11:31N 37°57' E 023°38'0 0.0
2016-May-24 10:31N 37°57' E 023°38'0 0.0
2016-May-24 09:31N 37°57' E 023°38'0 0.0
2016-May-24 08:31N 37°57' E 023°38'0 0.0
2016-May-24 07:31N 37°57' E 023°38'0 0.0
2016-May-24 06:31N 37°57' E 023°38'0 0.0
2016-May-24 05:31N 37°57' E 023°38'0 0.0
2016-May-24 04:31N 37°57' E 023°38'0 0.0
2016-May-24 03:34N 37°57' E 023°38'1413.5
2016-May-24 02:33N 37°44' E 023°43'1919.4
2016-May-24 01:33N 37°26' E 023°52'2019.8
2016-May-24 00:33N 37°07' E 024°02'2020.5
2016-May-23 23:33N 36°48' E 024°10'35 1.3
2016-May-22 20:09N 37°20' E 023°53'1220.1
2016-May-22 19:34N 37°31' E 023°47'2020.1
2016-May-22 18:34N 37°50' E 023°38'7 7.0
2016-May-22 17:33N 37°57' E 023°38'0 0.0
2016-May-22 16:34N 37°57' E 023°38'0 0.0
2016-May-22 15:34N 37°57' E 023°38'0 0.0
2016-May-22 14:34N 37°57' E 023°38'0 0.0
2016-May-22 13:34N 37°57' E 023°38'0 0.0
2016-May-22 12:34N 37°57' E 023°38'0 0.0
2016-May-22 11:34N 37°57' E 023°38'0 0.0
2016-May-22 10:34N 37°57' E 023°38'0 0.0
2016-May-22 09:34N 37°57' E 023°38'0 0.0
2016-May-22 08:34N 37°57' E 023°38'0 0.0
2016-May-22 07:34N 37°57' E 023°38'0 0.0
2016-May-22 06:34N 37°57' E 023°38'0 0.0
2016-May-22 05:34N 37°57' E 023°38'0 0.0
2016-May-22 04:34N 37°57' E 023°38'1 0.9
2016-May-22 03:34N 37°56' E 023°37'1918.7
2016-May-22 02:34N 37°39' E 023°46'2918.6
2016-May-22 01:00N 37°12' E 024°00'12 0.4 340 / 301006.910.8 20.015.322.0
2016-May-20 20:15N 37°22' E 023°52'1319.1
2016-May-20 19:33N 37°34' E 023°45'1918.9
2016-May-20 18:33N 37°52' E 023°37'5 4.9
2016-May-20 17:33N 37°57' E 023°38'0 0.0
2016-May-20 16:32N 37°57' E 023°38'0 0.0
2016-May-20 15:32N 37°57' E 023°38'0 0.0
2016-May-20 14:32N 37°57' E 023°38'0 0.0
2016-May-20 13:32N 37°57' E 023°38'0 0.0
2016-May-20 12:32N 37°57' E 023°38'0 0.0
2016-May-20 11:32N 37°57' E 023°38'0 0.0
2016-May-20 10:32N 37°57' E 023°38'0 0.0
2016-May-20 09:32N 37°57' E 023°38'0 0.0
2016-May-20 08:32N 37°57' E 023°38'0 0.0
2016-May-20 07:32N 37°57' E 023°38'0 0.0
2016-May-20 06:32N 37°57' E 023°38'0 0.0
2016-May-20 05:32N 37°57' E 023°38'0 0.0
2016-May-20 04:32N 37°57' E 023°38'1 1.1
2016-May-20 03:33N 37°56' E 023°37'1514.9
2016-May-20 02:33N 37°43' E 023°45'2020.3
2016-May-20 01:33N 37°23' E 023°53'2020.3
2016-May-20 00:33N 37°04' E 024°02'19 0.7
2016-May-18 20:22N 37°22' E 023°52'1619.1
2016-May-18 19:33N 37°36' E 023°45'1818.4
2016-May-18 18:33N 37°54' E 023°37'3 3.2
2016-May-18 17:33N 37°57' E 023°38'0 0.0
2016-May-18 16:32N 37°57' E 023°38'0 0.0
2016-May-18 15:32N 37°57' E 023°38'0 0.0
2016-May-18 14:32N 37°57' E 023°38'0 0.0
2016-May-18 13:32N 37°57' E 023°38'0 0.0
2016-May-18 12:33N 37°57' E 023°38'0 0.0
2016-May-18 09:10N 37°57' E 023°38'0 0.0
2016-May-18 08:34N 37°57' E 023°38'0 0.0
2016-May-18 07:32N 37°57' E 023°38'0 0.0
2016-May-18 06:32N 37°57' E 023°38'0 0.0
2016-May-18 05:33N 37°57' E 023°38'0 0.0
2016-May-18 04:33N 37°57' E 023°38'1 1.5
2016-May-18 03:34N 37°56' E 023°37'1818.5
2016-May-18 02:34N 37°39' E 023°46'2020.2
2016-May-18 01:33N 37°20' E 023°55'4 0.1
2016-May-16 20:33N 37°16' E 023°54'2019.9
2016-May-16 19:33N 37°34' E 023°45'2019.6
2016-May-16 18:34N 37°53' E 023°37'4 3.7
2016-May-16 17:32N 37°57' E 023°38'0 0.0
2016-May-16 16:32N 37°57' E 023°38'0 0.0
2016-May-16 15:32N 37°57' E 023°38'0 0.0
2016-May-16 14:32N 37°57' E 023°38'0 0.0
2016-May-16 13:32N 37°57' E 023°38'0 0.0
2016-May-16 12:32N 37°57' E 023°38'0 0.0
2016-May-16 11:32N 37°57' E 023°38'0 0.0
2016-May-16 10:33N 37°57' E 023°38'0 0.0
2016-May-16 07:33N 37°57' E 023°38'0 0.0
2016-May-16 05:33N 37°57' E 023°38'0 0.0
2016-May-16 04:33N 37°57' E 023°38'  

Dump ship's entire track history